Time;durP1;ratioP1;P1;durP2;ratioP2;P2;SDS_P1;SDS_P2;PMS_P1;PMS_P2;Temp;Humidity;BMP_temperature;BMP_pressure;BME280_temperature;BME280_humidity;BME280_pressure;Samples;Min_cycle;Max_cycle;Signal;HPM_P1;HPM_P2
2023/07/09 00:01:42;;;;;;;4.68;2.53;;;22.60;97.60;;;;;;5053274;28;20637;-54
2023/07/09 00:04:11;;;;;;;6.88;2.40;;;22.60;97.90;;;;;;5053064;28;20217;-56
2023/07/09 00:06:38;;;;;;;4.53;2.40;;;22.50;98.00;;;;;;5052613;28;20275;-55
2023/07/09 00:09:05;;;;;;;4.75;2.22;;;22.50;98.30;;;;;;5052656;28;20678;-56
2023/07/09 00:11:32;;;;;;;4.30;2.55;;;22.50;98.50;;;;;;5052757;28;20471;-56
2023/07/09 00:13:59;;;;;;;5.28;2.50;;;22.50;98.60;;;;;;5052891;28;20218;-54
2023/07/09 00:16:26;;;;;;;3.55;2.22;;;22.50;98.70;;;;;;5053015;28;20286;-56
2023/07/09 00:18:54;;;;;;;4.25;2.60;;;22.40;99.00;;;;;;5052858;28;20209;-56
2023/07/09 00:21:22;;;;;;;2.78;2.20;;;22.40;99.10;;;;;;5052592;28;20244;-55
2023/07/09 00:23:49;;;;;;;5.85;2.60;;;22.40;99.10;;;;;;5052972;28;20206;-55
2023/07/09 00:26:17;;;;;;;5.45;2.53;;;22.40;99.20;;;;;;5052377;28;20296;-54
2023/07/09 00:28:44;;;;;;;5.28;2.83;;;22.30;99.10;;;;;;5052788;28;20588;-54
2023/07/09 00:31:15;;;;;;;3.88;2.67;;;22.30;99.40;;;;;;5052538;28;20316;-56
2023/07/09 00:33:41;;;;;;;4.72;2.63;;;22.20;99.60;;;;;;5053004;28;20210;-55
2023/07/09 00:36:15;;;;;;;3.70;2.30;;;22.10;99.90;;;;;;5052249;28;20267;-55
2023/07/09 00:38:47;;;;;;;3.05;2.22;;;22.10;99.90;;;;;;5052782;28;20513;-56
2023/07/09 00:41:18;;;;;;;3.55;2.42;;;22.00;99.90;;;;;;5052305;28;20275;-55
2023/07/09 00:43:47;;;;;;;4.07;2.53;;;21.90;99.90;;;;;;5052404;28;20217;-55
2023/07/09 00:46:37;;;;;;;3.95;2.60;;;21.90;99.90;;;;;;5052144;28;20293;-56
2023/07/09 00:49:07;;;;;;;5.68;2.78;;;21.80;99.90;;;;;;5052466;28;20251;-57
2023/07/09 00:51:41;;;;;;;3.63;2.60;;;21.70;99.90;;;;;;5052355;28;20225;-56
2023/07/09 00:54:14;;;;;;;5.50;2.40;;;21.70;99.90;;;;;;5052211;28;20221;-54
2023/07/09 00:56:45;;;;;;;3.38;2.63;;;21.70;99.90;;;;;;5051722;28;20288;-54
2023/07/09 00:59:16;;;;;;;4.30;2.35;;;21.70;99.90;;;;;;5052200;28;20296;-54
2023/07/09 01:01:43;;;;;;;4.22;2.67;;;21.70;99.90;;;;;;5051392;28;20287;-56
2023/07/09 01:04:11;;;;;;;4.30;2.30;;;21.60;99.90;;;;;;5052138;28;20210;-56
2023/07/09 01:06:45;;;;;;;5.32;2.50;;;21.60;99.90;;;;;;5051556;28;20201;-58
2023/07/09 01:09:12;;;;;;;3.47;2.65;;;21.60;99.90;;;;;;5051949;28;20206;-54
2023/07/09 01:11:39;;;;;;;6.38;2.70;;;21.50;99.90;;;;;;5051722;28;20597;-54
2023/07/09 01:14:08;;;;;;;7.85;2.67;;;21.50;99.90;;;;;;5051736;28;20474;-54
2023/07/09 01:16:38;;;;;;;3.45;2.90;;;21.40;99.90;;;;;;5051184;28;20213;-54
2023/07/09 01:19:05;;;;;;;2.83;2.17;;;21.40;99.90;;;;;;5051862;28;20208;-54
2023/07/09 01:21:33;;;;;;;2.92;2.55;;;21.40;99.90;;;;;;5051915;28;20319;-58
2023/07/09 01:24:11;;;;;;;3.30;2.47;;;21.30;99.90;;;;;;5051458;28;20332;-58
2023/07/09 01:26:38;;;;;;;3.75;2.40;;;21.30;99.90;;;;;;5051465;28;20205;-57
2023/07/09 01:29:05;;;;;;;4.25;2.72;;;21.20;99.90;;;;;;5051624;28;20328;-58
2023/07/09 01:31:32;;;;;;;3.85;2.50;;;21.20;99.90;;;;;;5051408;28;20275;-58
2023/07/09 01:33:58;;;;;;;3.42;2.45;;;21.20;99.90;;;;;;5051386;28;20201;-57
2023/07/09 01:36:25;;;;;;;3.45;2.47;;;21.10;99.90;;;;;;5050989;28;20209;-58
2023/07/09 01:38:54;;;;;;;4.40;2.40;;;21.10;99.90;;;;;;5051338;28;20578;-58
2023/07/09 01:41:22;;;;;;;4.90;3.10;;;21.10;99.90;;;;;;5051289;28;20316;-58
2023/07/09 01:43:48;;;;;;;3.80;2.42;;;21.10;99.90;;;;;;5051252;28;20201;-57
2023/07/09 01:46:16;;;;;;;3.63;2.85;;;21.10;99.90;;;;;;5050912;28;20635;-58
2023/07/09 01:48:44;;;;;;;4.75;2.58;;;21.10;99.90;;;;;;5050996;28;20201;-58
2023/07/09 01:51:12;;;;;;;3.30;2.70;;;21.10;99.90;;;;;;5050905;28;20226;-58
2023/07/09 01:53:40;;;;;;;3.47;2.55;;;21.10;99.90;;;;;;5051297;28;20267;-58
2023/07/09 01:56:08;;;;;;;4.47;2.40;;;21.10;99.90;;;;;;5050844;28;20608;-58
2023/07/09 01:58:35;;;;;;;4.07;2.58;;;21.00;99.90;;;;;;5050976;28;20201;-58
2023/07/09 02:01:02;;;;;;;5.07;2.50;;;21.00;99.90;;;;;;5050818;28;20237;-58
2023/07/09 02:03:29;;;;;;;3.10;2.50;;;21.00;99.90;;;;;;5050823;28;20205;-58
2023/07/09 02:05:57;;;;;;;5.15;2.53;;;21.00;99.90;;;;;;5050620;28;20206;-58
2023/07/09 02:08:24;;;;;;;3.10;2.53;;;21.00;99.90;;;;;;5051075;28;20232;-59
2023/07/09 02:10:51;;;;;;;7.38;2.45;;;21.00;99.90;;;;;;5050756;28;20205;-58
2023/07/09 02:13:19;;;;;;;6.75;2.47;;;20.90;99.90;;;;;;5054927;28;20205;-59
2023/07/09 02:15:46;;;;;;;5.15;2.67;;;21.00;99.90;;;;;;5054739;28;20233;-58
2023/07/09 02:18:13;;;;;;;4.32;2.50;;;20.90;99.90;;;;;;5054903;28;20205;-57
2023/07/09 02:20:40;;;;;;;7.85;2.53;;;20.90;99.90;;;;;;5054850;28;20292;-60
2023/07/09 02:23:08;;;;;;;3.97;2.72;;;20.90;99.90;;;;;;5055120;28;20214;-60
2023/07/09 02:25:35;;;;;;;4.28;2.42;;;20.80;99.90;;;;;;5055065;28;20255;-59
2023/07/09 02:28:01;;;;;;;3.00;2.50;;;20.90;99.90;;;;;;5054659;28;20228;-59
2023/07/09 02:30:30;;;;;;;3.42;2.30;;;20.90;99.90;;;;;;5054712;28;20210;-59
2023/07/09 02:32:56;;;;;;;4.07;2.97;;;20.90;99.90;;;;;;5054890;28;20229;-59
2023/07/09 02:35:23;;;;;;;4.07;2.55;;;20.80;99.90;;;;;;5054854;28;20264;-59
2023/07/09 02:37:50;;;;;;;5.18;2.45;;;20.90;99.90;;;;;;5054878;28;20209;-59
2023/07/09 02:40:17;;;;;;;3.22;2.50;;;20.90;99.90;;;;;;5054776;28;20221;-58
2023/07/09 02:42:44;;;;;;;6.15;2.90;;;20.80;99.90;;;;;;5054552;28;20222;-59
2023/07/09 02:45:11;;;;;;;4.93;2.42;;;20.80;99.90;;;;;;5054655;28;20251;-59
2023/07/09 02:47:39;;;;;;;4.88;2.33;;;20.70;99.90;;;;;;5054479;28;20307;-58
2023/07/09 02:50:06;;;;;;;6.78;2.90;;;20.70;99.90;;;;;;5054498;28;20267;-58
2023/07/09 02:52:33;;;;;;;4.28;2.67;;;20.80;99.90;;;;;;5054454;28;20226;-59
2023/07/09 02:55:00;;;;;;;3.75;2.60;;;20.70;99.90;;;;;;5054393;28;20225;-59
2023/07/09 02:57:26;;;;;;;4.68;2.90;;;20.70;99.90;;;;;;5054099;28;20630;-59
2023/07/09 02:59:53;;;;;;;3.92;2.58;;;20.60;99.90;;;;;;5054276;28;20665;-60
2023/07/09 03:02:20;;;;;;;5.70;2.58;;;20.60;99.90;;;;;;5054477;28;20255;-60
2023/07/09 03:04:48;;;;;;;4.40;2.60;;;20.60;99.90;;;;;;5054261;28;20201;-58
2023/07/09 03:07:14;;;;;;;4.53;2.45;;;20.50;99.90;;;;;;5053921;28;20213;-59
2023/07/09 03:09:41;;;;;;;4.40;2.75;;;20.50;99.90;;;;;;5053996;28;20206;-59
2023/07/09 03:12:09;;;;;;;3.92;2.47;;;20.50;99.90;;;;;;5053859;28;20229;-60
2023/07/09 03:14:36;;;;;;;3.30;2.40;;;20.50;99.90;;;;;;5054085;28;20263;-60
2023/07/09 03:17:03;;;;;;;5.18;2.72;;;20.40;99.90;;;;;;5053802;28;20352;-59
2023/07/09 03:19:30;;;;;;;5.38;2.95;;;20.40;99.90;;;;;;5054258;28;20618;-60
2023/07/09 03:21:58;;;;;;;5.38;2.45;;;20.40;99.90;;;;;;5053575;28;20668;-58
2023/07/09 03:24:24;;;;;;;3.92;2.75;;;20.40;99.90;;;;;;5053078;28;20690;-59
2023/07/09 03:26:51;;;;;;;3.30;2.72;;;20.40;99.90;;;;;;5053320;28;20205;-59
2023/07/09 03:29:18;;;;;;;3.75;2.55;;;20.30;99.90;;;;;;5053489;28;20665;-59
2023/07/09 03:31:44;;;;;;;5.25;2.95;;;20.20;99.90;;;;;;5053566;28;20230;-59
2023/07/09 03:34:11;;;;;;;3.55;2.60;;;20.20;99.90;;;;;;5053543;28;20705;-59
2023/07/09 03:36:38;;;;;;;5.95;2.65;;;20.20;99.90;;;;;;5053132;28;20318;-59
2023/07/09 03:39:07;;;;;;;4.65;2.65;;;20.20;99.90;;;;;;5053435;28;20209;-59
2023/07/09 03:41:34;;;;;;;6.90;3.00;;;20.20;99.90;;;;;;5053351;28;20233;-58
2023/07/09 03:44:01;;;;;;;4.07;2.83;;;20.20;99.90;;;;;;5053663;28;20292;-58
2023/07/09 03:46:27;;;;;;;7.10;2.97;;;20.10;99.90;;;;;;5053257;28;20635;-57
2023/07/09 03:48:54;;;;;;;6.90;2.60;;;20.10;99.90;;;;;;5053273;28;20202;-58
2023/07/09 03:51:21;;;;;;;4.53;2.78;;;20.00;99.90;;;;;;5053127;28;20229;-58
2023/07/09 03:53:47;;;;;;;3.17;2.65;;;20.00;99.90;;;;;;5053034;28;20206;-57
2023/07/09 03:56:15;;;;;;;6.10;2.60;;;20.00;99.90;;;;;;5052994;28;20233;-58
2023/07/09 03:58:42;;;;;;;4.28;2.80;;;20.00;99.90;;;;;;5053160;28;20209;-60
2023/07/09 04:01:09;;;;;;;4.95;2.80;;;20.10;99.90;;;;;;5053169;28;20271;-58
2023/07/09 04:03:35;;;;;;;3.13;2.60;;;20.20;99.90;;;;;;5053442;28;20206;-58
2023/07/09 04:06:02;;;;;;;3.20;2.25;;;20.20;99.90;;;;;;5052844;28;20197;-60
2023/07/09 04:08:29;;;;;;;7.20;2.97;;;20.30;99.90;;;;;;5052976;28;20205;-58
2023/07/09 04:10:59;;;;;;;7.53;2.67;;;20.40;99.90;;;;;;5053148;28;20252;-60
2023/07/09 04:13:28;;;;;;;5.00;2.80;;;20.40;99.90;;;;;;5053082;28;20287;-59
2023/07/09 04:15:54;;;;;;;4.47;2.70;;;20.40;99.90;;;;;;5052667;28;20340;-58
2023/07/09 04:18:21;;;;;;;4.60;2.58;;;20.50;99.90;;;;;;5052683;28;20665;-58
2023/07/09 04:20:49;;;;;;;4.68;2.58;;;20.60;99.90;;;;;;5052559;28;20558;-59
2023/07/09 04:23:16;;;;;;;3.90;2.80;;;20.70;99.90;;;;;;5053012;28;20324;-58
2023/07/09 04:25:43;;;;;;;3.28;2.67;;;20.70;99.90;;;;;;5052587;28;20263;-58
2023/07/09 04:28:10;;;;;;;4.70;2.58;;;20.80;99.90;;;;;;5052632;28;20212;-58
2023/07/09 04:30:38;;;;;;;4.97;3.00;;;20.90;99.90;;;;;;5052466;28;20252;-58
2023/07/09 04:33:06;;;;;;;3.92;2.85;;;21.00;99.90;;;;;;5052390;28;20214;-58
2023/07/09 04:35:32;;;;;;;3.15;2.50;;;21.00;99.90;;;;;;5051257;28;20225;-57
2023/07/09 04:37:59;;;;;;;4.38;2.65;;;21.10;99.90;;;;;;5052397;28;20205;-57
2023/07/09 04:40:26;;;;;;;3.70;2.45;;;21.20;99.90;;;;;;5052349;28;20209;-59
2023/07/09 04:42:52;;;;;;;4.47;2.70;;;21.30;99.90;;;;;;5052467;28;20609;-59
2023/07/09 04:45:19;;;;;;;5.13;3.20;;;21.40;99.90;;;;;;5052033;28;20666;-58
2023/07/09 04:47:47;;;;;;;3.25;2.47;;;21.50;99.90;;;;;;5051982;28;20670;-58
2023/07/09 04:50:14;;;;;;;4.30;2.78;;;21.70;99.90;;;;;;5051998;28;20251;-59
2023/07/09 04:52:41;;;;;;;4.00;2.55;;;21.80;99.90;;;;;;5052354;28;20251;-59
2023/07/09 04:55:08;;;;;;;4.40;2.72;;;21.90;99.90;;;;;;5052212;28;20662;-58
2023/07/09 04:57:35;;;;;;;3.97;2.55;;;22.20;99.90;;;;;;5052025;28;20209;-58
2023/07/09 05:00:04;;;;;;;3.75;2.70;;;22.40;99.90;;;;;;5052069;28;20209;-59
2023/07/09 05:02:31;;;;;;;3.40;2.47;;;22.70;99.90;;;;;;5051839;28;20221;-59
2023/07/09 05:04:59;;;;;;;3.85;3.10;;;23.20;99.90;;;;;;5051928;28;20268;-58
2023/07/09 05:07:26;;;;;;;3.97;2.75;;;24.20;99.90;;;;;;5051963;28;20217;-58
2023/07/09 05:09:53;;;;;;;3.85;2.80;;;25.50;99.90;;;;;;5052122;28;20209;-58
2023/07/09 05:12:20;;;;;;;4.20;2.75;;;26.50;99.90;;;;;;5051774;28;20316;-58
2023/07/09 05:14:47;;;;;;;5.47;2.63;;;27.10;98.00;;;;;;5051900;28;20216;-58
2023/07/09 05:17:14;;;;;;;4.25;2.63;;;28.10;96.00;;;;;;5051355;28;20259;-58
2023/07/09 05:19:40;;;;;;;4.95;2.63;;;29.20;93.20;;;;;;5051929;28;20263;-58
2023/07/09 05:22:08;;;;;;;4.72;2.50;;;30.40;89.70;;;;;;5051607;28;20229;-58
2023/07/09 05:24:35;;;;;;;6.68;2.75;;;31.40;84.00;;;;;;5051483;28;20213;-59
2023/07/09 05:27:02;;;;;;;2.85;2.45;;;32.10;80.00;;;;;;5051451;28;20725;-59
2023/07/09 05:29:28;;;;;;;7.97;2.83;;;33.00;75.60;;;;;;5051626;28;20245;-58
2023/07/09 05:31:55;;;;;;;2.53;2.33;;;33.70;72.40;;;;;;5051249;28;20229;-59
2023/07/09 05:34:22;;;;;;;3.22;2.65;;;34.40;69.10;;;;;;5051707;28;20239;-57
2023/07/09 05:36:49;;;;;;;5.07;2.90;;;34.80;66.90;;;;;;5051198;28;20316;-58
2023/07/09 05:39:17;;;;;;;3.22;2.75;;;34.90;65.50;;;;;;5051536;28;20201;-59
2023/07/09 05:41:44;;;;;;;6.88;3.38;;;34.80;65.10;;;;;;5051299;28;20221;-58
2023/07/09 05:44:11;;;;;;;4.57;2.92;;;34.80;64.20;;;;;;5051294;28;20670;-58
2023/07/09 05:46:38;;;;;;;3.17;2.50;;;35.20;62.50;;;;;;5051041;28;20208;-60
2023/07/09 05:49:06;;;;;;;5.63;2.60;;;35.80;61.00;;;;;;5051484;28;20201;-58
2023/07/09 05:51:33;;;;;;;4.20;2.90;;;36.30;59.90;;;;;;5050944;28;20714;-58
2023/07/09 05:53:59;;;;;;;4.40;2.88;;;37.00;58.30;;;;;;5051374;28;20208;-58
2023/07/09 05:56:28;;;;;;;5.45;2.70;;;37.50;57.00;;;;;;5050838;28;20275;-58
2023/07/09 05:58:56;;;;;;;5.53;2.80;;;38.20;55.60;;;;;;5051007;28;20216;-58
2023/07/09 06:01:23;;;;;;;6.13;2.95;;;38.80;54.50;;;;;;5051116;28;20304;-57
2023/07/09 06:03:49;;;;;;;5.10;2.60;;;39.40;53.10;;;;;;5051379;28;20255;-57
2023/07/09 06:06:17;;;;;;;4.50;2.60;;;40.00;51.90;;;;;;5051021;28;20292;-58
2023/07/09 06:08:43;;;;;;;4.55;2.63;;;40.50;50.90;;;;;;5051381;28;20205;-58
2023/07/09 06:11:10;;;;;;;3.30;2.40;;;41.00;49.80;;;;;;5051049;28;20283;-58
2023/07/09 06:13:38;;;;;;;4.57;2.65;;;41.50;48.60;;;;;;5051101;28;20217;-57
2023/07/09 06:16:06;;;;;;;4.60;2.60;;;41.90;47.90;;;;;;5050716;28;20781;-58
2023/07/09 06:18:33;;;;;;;5.28;2.75;;;42.20;47.50;;;;;;5051270;28;20205;-58
2023/07/09 06:21:02;;;;;;;4.47;2.60;;;42.60;47.10;;;;;;5051017;28;20306;-59
2023/07/09 06:23:29;;;;;;;4.03;2.58;;;42.90;45.90;;;;;;5050989;28;20418;-57
2023/07/09 06:25:57;;;;;;;5.82;3.00;;;42.90;45.90;;;;;;5050490;28;20294;-57
2023/07/09 06:28:26;;;;;;;5.82;2.90;;;43.20;45.40;;;;;;5051227;28;20209;-58
2023/07/09 06:30:54;;;;;;;5.50;2.63;;;43.50;45.00;;;;;;5050782;28;20579;-58
2023/07/09 06:33:21;;;;;;;4.10;2.75;;;43.60;44.90;;;;;;5051253;28;20257;-59
2023/07/09 06:35:49;;;;;;;3.63;2.63;;;43.90;44.20;;;;;;5050551;28;20224;-57
2023/07/09 06:38:16;;;;;;;3.15;2.63;;;44.40;43.80;;;;;;5050905;28;20208;-57
2023/07/09 06:40:42;;;;;;;3.95;2.58;;;44.90;42.80;;;;;;5050677;28;20215;-58
2023/07/09 06:43:09;;;;;;;5.60;2.88;;;45.60;42.00;;;;;;5050832;28;20213;-58
2023/07/09 06:45:36;;;;;;;3.88;2.80;;;46.00;41.10;;;;;;5050683;28;20205;-58
2023/07/09 06:48:05;;;;;;;3.95;2.70;;;46.30;40.60;;;;;;5050718;28;20232;-58
2023/07/09 06:50:34;;;;;;;4.57;2.70;;;46.30;40.20;;;;;;5050776;28;20201;-58
2023/07/09 06:53:01;;;;;;;8.57;3.17;;;46.20;40.40;;;;;;5050610;28;20201;-58
2023/07/09 06:55:27;;;;;;;4.03;2.60;;;46.10;41.20;;;;;;5050794;28;20201;-58
2023/07/09 06:57:54;;;;;;;5.35;2.95;;;46.50;40.60;;;;;;5050566;28;20231;-58
2023/07/09 07:00:21;;;;;;;4.07;2.90;;;46.90;39.50;;;;;;5054410;28;20684;-59
2023/07/09 07:02:48;;;;;;;4.82;2.97;;;47.00;39.20;;;;;;5054309;28;20731;-59
2023/07/09 07:05:16;;;;;;;6.68;3.20;;;46.90;39.90;;;;;;5054313;28;20243;-58
2023/07/09 07:07:43;;;;;;;5.35;2.80;;;47.50;39.00;;;;;;5053873;28;20228;-57
2023/07/09 07:10:10;;;;;;;4.25;3.20;;;47.20;38.80;;;;;;5054283;28;20209;-58
2023/07/09 07:12:43;;;;;;;4.20;2.95;;;46.90;38.60;;;;;;5054355;28;20236;-58
2023/07/09 07:15:11;;;;;;;6.18;2.90;;;46.40;38.90;;;;;;5054362;28;20220;-58
2023/07/09 07:17:38;;;;;;;3.92;2.60;;;46.20;39.40;;;;;;5053921;28;20256;-59
2023/07/09 07:20:06;;;;;;;3.72;2.65;;;46.20;39.00;;;;;;5053868;28;20266;-58
2023/07/09 07:22:34;;;;;;;5.65;2.83;;;46.80;39.20;;;;;;5054328;28;20294;-58
2023/07/09 07:25:00;;;;;;;5.07;2.92;;;46.40;38.90;;;;;;5054189;28;20285;-58
2023/07/09 07:27:27;;;;;;;4.25;2.80;;;45.00;40.60;;;;;;5053599;28;20197;-58
2023/07/09 07:29:54;;;;;;;3.58;2.90;;;45.10;40.30;;;;;;5053684;28;20216;-57
2023/07/09 07:32:21;;;;;;;4.75;3.00;;;45.80;38.90;;;;;;5053685;28;20352;-57
2023/07/09 07:34:48;;;;;;;4.25;3.17;;;46.00;39.10;;;;;;5053837;28;20209;-58
2023/07/09 07:37:15;;;;;;;3.53;2.58;;;45.60;39.70;;;;;;5053503;28;20233;-57
2023/07/09 07:39:43;;;;;;;4.60;2.72;;;45.40;39.80;;;;;;5053907;28;20204;-59
2023/07/09 07:42:10;;;;;;;5.72;3.25;;;45.10;39.80;;;;;;5053479;28;20655;-58
2023/07/09 07:44:37;;;;;;;4.93;3.10;;;44.30;40.60;;;;;;5053601;28;20254;-59
2023/07/09 07:47:04;;;;;;;5.50;3.13;;;43.90;41.40;;;;;;5053354;28;20205;-59
2023/07/09 07:49:31;;;;;;;5.03;3.03;;;44.30;40.80;;;;;;5053406;28;20205;-58
2023/07/09 07:51:58;;;;;;;4.88;2.88;;;45.00;39.70;;;;;;5053751;28;20225;-59
2023/07/09 07:54:25;;;;;;;5.20;2.80;;;45.00;39.40;;;;;;5053638;28;20204;-59
2023/07/09 07:56:53;;;;;;;4.43;2.80;;;45.60;39.20;;;;;;5053124;28;20221;-59
2023/07/09 07:59:20;;;;;;;4.03;3.08;;;46.50;38.30;;;;;;5053194;28;20223;-58
2023/07/09 08:01:48;;;;;;;5.68;2.65;;;47.40;37.30;;;;;;5053246;28;20660;-59
2023/07/09 08:04:15;;;;;;;5.05;2.92;;;48.30;36.20;;;;;;5053555;28;20294;-58
2023/07/09 08:06:42;;;;;;;4.63;2.88;;;48.70;35.70;;;;;;5053179;28;20208;-59
2023/07/09 08:09:08;;;;;;;3.55;3.00;;;47.90;36.60;;;;;;5053390;28;20218;-57
2023/07/09 08:11:35;;;;;;;4.03;2.90;;;47.80;36.10;;;;;;5053155;28;20228;-60
2023/07/09 08:14:03;;;;;;;5.18;3.00;;;48.20;36.60;;;;;;5053145;28;20266;-59
2023/07/09 08:16:30;;;;;;;4.35;2.78;;;48.00;36.00;;;;;;5052518;28;20228;-59
2023/07/09 08:18:57;;;;;;;4.63;3.03;;;48.20;35.50;;;;;;5052978;28;20208;-59
2023/07/09 08:21:24;;;;;;;5.30;3.00;;;48.20;35.70;;;;;;5052864;28;20228;-59
2023/07/09 08:23:50;;;;;;;4.57;3.00;;;48.30;35.80;;;;;;5052974;28;20596;-59
2023/07/09 08:26:17;;;;;;;4.38;2.72;;;48.90;35.00;;;;;;5052602;28;20251;-59
2023/07/09 08:28:44;;;;;;;3.63;2.90;;;49.50;34.40;;;;;;5052540;28;20209;-59
2023/07/09 08:31:12;;;;;;;3.63;2.78;;;49.80;34.10;;;;;;5052617;28;20267;-61
2023/07/09 08:33:39;;;;;;;4.40;2.80;;;50.00;33.70;;;;;;5052840;28;20209;-58
2023/07/09 08:36:06;;;;;;;4.07;3.00;;;49.70;33.70;;;;;;5052594;28;20259;-58
2023/07/09 08:38:34;;;;;;;3.95;2.75;;;49.50;33.70;;;;;;5052623;28;20212;-58
2023/07/09 08:41:03;;;;;;;4.13;2.85;;;49.70;33.90;;;;;;5052484;28;20233;-58
2023/07/09 08:43:36;;;;;;;4.75;2.85;;;50.00;34.10;;;;;;5052829;28;20292;-58
2023/07/09 08:46:14;;;;;;;4.55;2.85;;;50.20;33.40;;;;;;5052768;28;20201;-58
2023/07/09 08:48:46;;;;;;;6.97;2.60;;;50.00;33.20;;;;;;5052729;28;20208;-58
2023/07/09 08:51:18;;;;;;;3.92;2.60;;;49.60;33.40;;;;;;5052644;28;20278;-58
2023/07/09 08:53:49;;;;;;;3.38;2.50;;;48.70;34.00;;;;;;5052284;28;20593;-59
2023/07/09 08:56:18;;;;;;;4.63;3.05;;;47.70;34.90;;;;;;5052286;28;20271;-60
2023/07/09 08:58:47;;;;;;;3.30;2.80;;;46.40;35.90;;;;;;5052512;28;20204;-58
2023/07/09 09:01:20;;;;;;;3.78;2.70;;;45.00;37.40;;;;;;5051961;28;20583;-59
2023/07/09 09:03:51;;;;;;;3.17;2.80;;;43.50;38.60;;;;;;5052180;28;20296;-59
2023/07/09 09:06:20;;;;;;;8.52;2.90;;;42.30;40.00;;;;;;5051659;28;20243;-59
2023/07/09 09:08:59;;;;;;;5.00;2.90;;;41.30;41.00;;;;;;5051867;28;20204;-58
2023/07/09 09:11:35;;;;;;;3.75;2.47;;;40.40;41.70;;;;;;5052013;28;20252;-59
2023/07/09 09:14:08;;;;;;;5.40;2.63;;;39.50;42.00;;;;;;5051904;28;20669;-58
2023/07/09 09:16:39;;;;;;;5.90;4.65;;;38.80;42.60;;;;;;5052282;28;20312;-61
2023/07/09 09:19:21;;;;;;;5.82;4.70;;;38.20;43.60;;;;;;5052370;28;20300;-59
2023/07/09 09:21:55;;;;;;;5.95;2.42;;;37.70;42.70;;;;;;5051192;28;20725;-60
2023/07/09 09:24:30;;;;;;;4.45;2.50;;;37.40;42.10;;;;;;5048412;28;20205;-63
2023/07/09 09:26:58;;;;;;;4.53;2.90;;;37.00;42.40;;;;;;5046714;28;20231;-61
2023/07/09 09:29:26;;;;;;;3.58;2.45;;;36.70;43.30;;;;;;5051257;28;20201;-60
2023/07/09 09:31:55;;;;;;;6.45;2.97;;;36.50;44.50;;;;;;5048636;28;20663;-64
2023/07/09 09:34:28;;;;;;;3.80;2.80;;;36.30;44.00;;;;;;5050417;28;20288;-64
2023/07/09 09:36:55;;;;;;;3.00;2.38;;;36.10;45.00;;;;;;5049832;28;20316;-63
2023/07/09 09:39:24;;;;;;;3.65;2.63;;;36.00;44.70;;;;;;5050577;28;20497;-63
2023/07/09 09:41:54;;;;;;;5.40;2.78;;;35.90;45.70;;;;;;5049444;28;20241;-63
2023/07/09 09:44:25;;;;;;;3.97;2.40;;;35.80;46.40;;;;;;5050301;28;20209;-61
2023/07/09 09:46:52;;;;;;;3.45;2.65;;;35.70;45.30;;;;;;5050963;28;20202;-63
2023/07/09 09:49:20;;;;;;;3.83;2.50;;;35.60;43.70;;;;;;5049667;28;20209;-63
2023/07/09 09:51:48;;;;;;;3.15;2.53;;;35.60;44.20;;;;;;5051289;28;20603;-62
2023/07/09 09:54:19;;;;;;;3.72;2.92;;;35.50;45.70;;;;;;5051180;28;20213;-65
2023/07/09 09:56:48;;;;;;;5.18;2.95;;;35.30;46.10;;;;;;5051213;28;20201;-63
2023/07/09 09:59:19;;;;;;;8.30;2.70;;;35.20;46.40;;;;;;5051383;28;20734;-64
2023/07/09 10:01:46;;;;;;;6.13;3.13;;;35.20;46.70;;;;;;5051380;28;20240;-63
2023/07/09 10:04:18;;;;;;;9.65;4.32;;;35.20;46.20;;;;;;5051782;28;20545;-64
2023/07/09 10:06:51;;;;;;;6.45;4.65;;;35.30;46.10;;;;;;5052594;28;20217;-63
2023/07/09 10:09:27;;;;;;;5.05;3.05;;;35.30;46.10;;;;;;5055013;28;20205;-63
2023/07/09 10:11:59;;;;;;;9.98;5.60;;;35.40;46.20;;;;;;5052962;28;20251;-61
2023/07/09 10:14:41;;;;;;;4.40;2.50;;;35.40;46.20;;;;;;5051023;28;20215;-62
2023/07/09 10:17:20;;;;;;;4.60;2.80;;;35.40;44.30;;;;;;5050694;28;20574;-63
2023/07/09 10:19:52;;;;;;;4.22;2.88;;;35.40;44.50;;;;;;5051612;28;20212;-63
2023/07/09 10:22:32;;;;;;;5.53;2.67;;;35.30;44.80;;;;;;5050822;28;20785;-62
2023/07/09 10:25:07;;;;;;;5.07;2.70;;;35.30;45.10;;;;;;5050770;28;20212;-62
2023/07/09 10:27:44;;;;;;;4.43;2.58;;;35.40;44.40;;;;;;5050680;28;20288;-62
2023/07/09 10:30:23;;;;;;;4.85;2.53;;;35.50;44.60;;;;;;5051104;28;20657;-64
2023/07/09 10:33:08;;;;;;;4.20;2.78;;;35.60;44.60;;;;;;5050966;28;20255;-61
2023/07/09 10:35:41;;;;;;;5.10;2.90;;;35.70;44.00;;;;;;5054675;28;20205;-64
2023/07/09 10:38:34;;;;;;;3.78;2.83;;;35.70;43.70;;;;;;5052346;28;20221;-62
2023/07/09 10:41:05;;;;;;;4.68;3.00;;;35.70;44.30;;;;;;5054529;28;20575;-62
2023/07/09 10:43:37;;;;;;;4.53;2.72;;;35.70;44.40;;;;;;5054454;28;20665;-64
2023/07/09 10:46:11;;;;;;;3.88;2.83;;;35.80;44.20;;;;;;5053937;28;20278;-62
2023/07/09 10:48:41;;;;;;;6.43;2.85;;;35.90;42.80;;;;;;5053034;28;20205;-61
2023/07/09 10:51:18;;;;;;;4.72;2.65;;;35.60;43.50;;;;;;5054495;28;20256;-63
2023/07/09 10:53:50;;;;;;;5.63;2.60;;;35.50;43.90;;;;;;5054277;28;20209;-64
2023/07/09 10:56:21;;;;;;;4.30;2.58;;;35.60;42.90;;;;;;5054545;28;20620;-62
2023/07/09 10:58:54;;;;;;;4.57;2.95;;;35.70;42.00;;;;;;5054138;28;20347;-65
2023/07/09 11:01:28;;;;;;;5.55;3.10;;;35.90;41.90;;;;;;5054323;28;20308;-63
2023/07/09 11:03:59;;;;;;;4.22;2.83;;;36.10;41.60;;;;;;5054611;28;20214;-63
2023/07/09 11:06:32;;;;;;;4.28;2.90;;;36.20;41.50;;;;;;5054212;28;20202;-62
2023/07/09 11:09:02;;;;;;;4.43;2.35;;;36.30;42.20;;;;;;5054281;28;20209;-63
2023/07/09 11:11:34;;;;;;;4.28;2.97;;;36.50;42.10;;;;;;5054041;28;20225;-62
2023/07/09 11:14:07;;;;;;;4.50;2.80;;;36.50;42.20;;;;;;5054121;28;20212;-62
2023/07/09 11:16:39;;;;;;;4.75;2.92;;;36.50;41.90;;;;;;5053887;28;20210;-64
2023/07/09 11:19:07;;;;;;;7.78;3.30;;;36.40;41.60;;;;;;5054186;28;20617;-65
2023/07/09 11:21:34;;;;;;;5.35;3.72;;;36.20;42.60;;;;;;5054373;28;20744;-64
2023/07/09 11:24:02;;;;;;;4.50;3.20;;;36.10;42.60;;;;;;5053563;28;20210;-64
2023/07/09 11:26:31;;;;;;;4.72;2.65;;;36.10;43.20;;;;;;5053681;28;20214;-61
2023/07/09 11:29:16;;;;;;;3.97;2.78;;;35.90;42.80;;;;;;5053878;28;20688;-59
2023/07/09 11:31:46;;;;;;;4.97;2.78;;;35.80;42.70;;;;;;5053822;28;20230;-59
2023/07/09 11:34:19;;;;;;;4.43;2.85;;;35.80;42.60;;;;;;5053911;28;20210;-59
2023/07/09 11:36:51;;;;;;;6.35;2.88;;;35.90;42.70;;;;;;5053730;28;20289;-59
2023/07/09 11:39:22;;;;;;;4.50;2.95;;;36.00;42.70;;;;;;5054393;28;20720;-59
2023/07/09 11:41:49;;;;;;;6.10;2.92;;;36.20;42.50;;;;;;5053856;28;20729;-59
2023/07/09 11:44:19;;;;;;;4.90;3.03;;;36.30;42.10;;;;;;5053231;28;20274;-58
2023/07/09 11:46:56;;;;;;;6.20;3.10;;;36.40;41.30;;;;;;5053404;28;20202;-57
2023/07/09 11:49:26;;;;;;;6.97;3.45;;;36.60;41.30;;;;;;5054031;28;20262;-59
2023/07/09 11:51:56;;;;;;;6.95;3.50;;;36.70;41.30;;;;;;5053716;28;20286;-59
2023/07/09 11:54:24;;;;;;;7.43;3.45;;;36.70;40.70;;;;;;5053622;28;20608;-60
2023/07/09 11:56:57;;;;;;;4.05;2.83;;;36.50;40.40;;;;;;5053444;28;20212;-59
2023/07/09 11:59:25;;;;;;;5.20;3.35;;;36.50;40.50;;;;;;5053406;28;20633;-59
2023/07/09 12:01:54;;;;;;;4.18;3.20;;;36.60;40.60;;;;;;5053485;28;20598;-59
2023/07/09 12:04:24;;;;;;;8.65;4.47;;;36.70;40.50;;;;;;5053431;28;20582;-60
2023/07/09 12:06:57;;;;;;;7.68;3.30;;;36.90;40.30;;;;;;5053069;28;20210;-59
2023/07/09 12:09:25;;;;;;;5.85;3.20;;;36.90;40.20;;;;;;5053406;28;20205;-59
2023/07/09 12:11:52;;;;;;;3.70;3.00;;;37.00;40.10;;;;;;5053273;28;20229;-59
2023/07/09 12:14:20;;;;;;;4.32;3.03;;;36.90;40.00;;;;;;5053131;28;20256;-59
2023/07/09 12:16:49;;;;;;;5.95;3.10;;;36.90;40.00;;;;;;5053036;28;20299;-58
2023/07/09 12:19:17;;;;;;;4.60;3.42;;;36.80;39.60;;;;;;5053048;28;20666;-58
2023/07/09 12:21:46;;;;;;;4.97;2.97;;;36.90;39.70;;;;;;5052816;28;20242;-58
2023/07/09 12:24:20;;;;;;;6.43;3.15;;;36.90;39.70;;;;;;5052919;28;20213;-59
2023/07/09 12:26:50;;;;;;;6.97;3.10;;;36.90;39.80;;;;;;5052901;28;20216;-59
2023/07/09 12:29:17;;;;;;;4.47;3.22;;;36.90;39.70;;;;;;5052953;28;20527;-59
2023/07/09 12:31:44;;;;;;;8.30;3.70;;;37.10;39.90;;;;;;5052664;28;20709;-59
2023/07/09 12:34:12;;;;;;;5.35;3.15;;;37.20;39.20;;;;;;5052710;28;20694;-59
2023/07/09 12:36:42;;;;;;;7.72;3.40;;;37.40;39.00;;;;;;5052233;28;20209;-59
2023/07/09 12:39:12;;;;;;;5.85;3.20;;;37.60;38.60;;;;;;5052697;28;20325;-59
2023/07/09 12:41:41;;;;;;;6.18;3.92;;;37.70;38.60;;;;;;5052912;28;20315;-59
2023/07/09 12:44:17;;;;;;;4.25;3.25;;;37.80;38.60;;;;;;5052655;28;20212;-59
2023/07/09 12:46:44;;;;;;;5.50;3.13;;;37.90;38.80;;;;;;5052507;28;20275;-59
2023/07/09 12:49:22;;;;;;;6.20;3.55;;;38.00;38.70;;;;;;5052512;28;20198;-59
2023/07/09 12:51:49;;;;;;;8.43;3.38;;;38.10;38.30;;;;;;5052393;28;20601;-59
2023/07/09 12:54:17;;;;;;;6.35;3.75;;;38.00;38.30;;;;;;5052586;28;20243;-59
2023/07/09 12:56:45;;;;;;;5.15;3.38;;;38.10;38.20;;;;;;5051136;28;20213;-59